createdAt,value
2018-12-07T00:00:21.860Z,4.10
2018-12-07T00:01:21.873Z,3.90
2018-12-07T00:02:21.856Z,3.60
2018-12-07T00:03:21.877Z,3.80
2018-12-07T00:04:21.852Z,3.60
2018-12-07T00:05:21.870Z,3.70
2018-12-07T00:06:21.852Z,3.70
2018-12-07T00:07:22.067Z,3.60
2018-12-07T00:08:21.859Z,3.90
2018-12-07T00:09:21.859Z,3.80
2018-12-07T00:10:21.860Z,4.00
2018-12-07T00:11:21.850Z,3.70
2018-12-07T00:12:21.843Z,3.90
2018-12-07T00:13:21.856Z,3.40
2018-12-07T00:14:21.860Z,3.70
2018-12-07T00:15:22.111Z,4.30
2018-12-07T00:16:21.843Z,3.50
2018-12-07T00:17:21.846Z,3.60
2018-12-07T00:18:21.848Z,3.70
2018-12-07T00:19:22.055Z,3.70
2018-12-07T00:20:21.834Z,3.70
2018-12-07T00:21:22.051Z,4.00
2018-12-07T00:22:21.843Z,4.00
2018-12-07T00:23:21.832Z,3.40
2018-12-07T00:24:21.832Z,3.60
2018-12-07T00:25:21.832Z,3.70
2018-12-07T00:26:21.839Z,3.50
2018-12-07T00:27:21.837Z,3.80
2018-12-07T00:28:22.028Z,3.90
2018-12-07T00:29:21.818Z,2.90
2018-12-07T00:30:21.825Z,3.50
2018-12-07T00:31:21.832Z,3.10
2018-12-07T00:32:21.838Z,3.50
2018-12-07T00:33:22.034Z,3.10
2018-12-07T00:34:21.830Z,3.50
2018-12-07T00:35:21.825Z,3.40
2018-12-07T00:36:21.815Z,3.10
2018-12-07T00:37:21.808Z,3.30
2018-12-07T00:38:21.817Z,3.40
2018-12-07T00:39:21.833Z,3.20
2018-12-07T00:40:21.830Z,3.40
2018-12-07T00:41:21.816Z,3.20
2018-12-07T00:42:21.809Z,3.40
2018-12-07T00:43:21.803Z,3.00
2018-12-07T00:44:21.827Z,3.30
2018-12-07T00:45:21.804Z,3.00
2018-12-07T00:46:22.029Z,3.30
2018-12-07T00:47:21.825Z,3.00
2018-12-07T00:48:21.800Z,3.30
2018-12-07T00:49:21.803Z,3.20
2018-12-07T00:50:21.797Z,2.90
2018-12-07T00:51:21.806Z,3.20
2018-12-07T00:52:21.805Z,2.80
2018-12-07T00:53:21.803Z,3.20
2018-12-07T00:54:21.999Z,3.00
2018-12-07T00:55:21.796Z,3.50
2018-12-07T00:56:21.786Z,2.80
2018-12-07T00:57:21.984Z,3.40
2018-12-07T00:58:21.793Z,3.40
2018-12-07T00:59:21.793Z,3.20
2018-12-07T01:00:21.779Z,2.90
2018-12-07T01:01:21.779Z,3.10
2018-12-07T01:02:21.786Z,2.90
2018-12-07T01:03:22.007Z,3.40
2018-12-07T01:04:21.777Z,3.20
2018-12-07T01:05:21.776Z,3.00
2018-12-07T01:06:21.801Z,3.40
2018-12-07T01:07:21.778Z,3.50
2018-12-07T01:08:21.781Z,2.90
2018-12-07T01:09:21.789Z,3.70
2018-12-07T01:10:21.988Z,3.40
2018-12-07T01:11:21.770Z,3.20
2018-12-07T01:12:21.779Z,3.50
2018-12-07T01:13:21.766Z,3.20
2018-12-07T01:14:21.780Z,3.40
2018-12-07T01:15:21.774Z,3.60
2018-12-07T01:16:21.759Z,3.60
2018-12-07T01:17:21.768Z,3.70
2018-12-07T01:18:21.776Z,4.00
2018-12-07T01:19:21.968Z,3.30
2018-12-07T01:20:21.776Z,3.50
2018-12-07T01:21:21.777Z,4.10
2018-12-07T01:22:21.984Z,3.40
2018-12-07T01:23:21.772Z,3.40
2018-12-07T01:24:21.776Z,3.80
2018-12-07T01:25:21.973Z,3.60
2018-12-07T01:26:21.767Z,3.00
2018-12-07T01:27:21.963Z,3.60
2018-12-07T01:28:21.754Z,3.50
2018-12-07T01:29:21.742Z,3.40
2018-12-07T01:30:21.744Z,3.50
2018-12-07T01:31:21.764Z,3.80
2018-12-07T01:32:21.947Z,3.10
2018-12-07T01:33:21.758Z,3.60
2018-12-07T01:34:21.762Z,3.40
2018-12-07T01:35:21.755Z,3.50
2018-12-07T01:36:21.736Z,3.30
2018-12-07T01:37:21.739Z,3.30
2018-12-07T01:38:21.739Z,3.30
2018-12-07T01:39:21.742Z,3.00
2018-12-07T01:40:21.748Z,3.70
2018-12-07T01:41:21.731Z,3.60
2018-12-07T01:42:21.730Z,3.50
2018-12-07T01:43:21.936Z,3.90
2018-12-07T01:44:21.727Z,3.90
2018-12-07T01:45:21.726Z,3.50
2018-12-07T01:46:21.742Z,3.40
2018-12-07T01:47:21.737Z,3.10
2018-12-07T01:48:21.724Z,3.60
2018-12-07T01:49:21.729Z,3.50
2018-12-07T01:50:21.938Z,3.70
2018-12-07T01:51:21.722Z,3.10
2018-12-07T01:52:21.749Z,3.80
2018-12-07T01:53:21.736Z,3.90
2018-12-07T01:54:21.939Z,3.60
2018-12-07T01:55:21.748Z,3.70
2018-12-07T01:56:21.723Z,3.60
2018-12-07T01:57:21.727Z,4.00
2018-12-07T01:58:21.710Z,3.90
2018-12-07T01:59:21.720Z,3.40
2018-12-07T02:00:21.711Z,3.60
2018-12-07T02:01:21.711Z,3.70
2018-12-07T02:02:21.703Z,3.90
2018-12-07T02:03:21.908Z,4.10
2018-12-07T02:04:21.736Z,3.70
2018-12-07T02:05:21.717Z,3.90
2018-12-07T02:06:21.722Z,3.50
2018-12-07T02:07:21.906Z,4.10
2018-12-07T02:08:21.697Z,3.70
2018-12-07T02:09:21.700Z,3.80
2018-12-07T02:10:21.917Z,3.90
2018-12-07T02:11:21.706Z,4.10
2018-12-07T02:12:21.709Z,4.10
2018-12-07T02:13:21.694Z,4.00
2018-12-07T02:14:21.700Z,4.00
2018-12-07T02:15:21.696Z,4.00
2018-12-07T02:16:21.899Z,3.70
2018-12-07T02:17:21.892Z,3.70
2018-12-07T02:18:21.687Z,4.00
2018-12-07T02:19:21.896Z,3.30
2018-12-07T02:20:21.694Z,30.50
2018-12-07T02:21:21.690Z,3.50
2018-12-07T02:22:21.680Z,3.50
2018-12-07T02:23:21.686Z,3.80
2018-12-07T02:24:21.678Z,3.40
2018-12-07T02:25:21.677Z,3.30
2018-12-07T02:26:21.697Z,3.30
2018-12-07T02:27:21.689Z,3.70
2018-12-07T02:28:21.893Z,3.50
2018-12-07T02:29:21.671Z,3.40
2018-12-07T02:30:21.699Z,3.70
2018-12-07T02:31:21.874Z,3.60
2018-12-07T02:32:21.672Z,3.60
2018-12-07T02:33:21.670Z,3.30
2018-12-07T02:34:21.675Z,3.80
2018-12-07T02:35:21.667Z,3.50
2018-12-07T02:36:21.871Z,3.40
2018-12-07T02:37:21.667Z,3.80
2018-12-07T02:38:21.678Z,4.00
2018-12-07T02:39:21.677Z,3.80
2018-12-07T02:40:21.665Z,3.40
2018-12-07T02:41:21.663Z,3.40
2018-12-07T02:42:21.670Z,3.50
2018-12-07T02:43:21.658Z,3.20
2018-12-07T02:44:21.961Z,6.80
2018-12-07T02:45:21.655Z,3.40
2018-12-07T02:46:21.954Z,4.40
2018-12-07T02:47:21.856Z,3.40
2018-12-07T02:48:21.650Z,3.80
2018-12-07T02:49:21.673Z,3.80
2018-12-07T02:50:21.668Z,4.60
2018-12-07T02:51:21.856Z,4.10
2018-12-07T02:52:21.644Z,4.40
2018-12-07T02:53:21.917Z,3.80
2018-12-07T02:54:21.673Z,3.70
2018-12-07T02:55:21.678Z,4.30
2018-12-07T02:56:21.850Z,4.10
2018-12-07T02:57:21.845Z,4.30
2018-12-07T02:58:21.649Z,4.10
2018-12-07T02:59:21.843Z,4.70
2018-12-07T03:00:21.845Z,4.10
2018-12-07T03:01:21.845Z,4.60
2018-12-07T03:02:21.655Z,4.50
2018-12-07T03:03:21.643Z,4.70
2018-12-07T03:04:21.634Z,4.80
2018-12-07T03:05:21.648Z,4.70
2018-12-07T03:06:21.633Z,5.10
2018-12-07T03:07:21.634Z,4.90
2018-12-07T03:08:21.624Z,5.00
2018-12-07T03:09:21.621Z,4.80
2018-12-07T03:10:21.645Z,4.30
2018-12-07T03:11:21.618Z,4.70
2018-12-07T03:12:21.623Z,4.40
2018-12-07T03:13:21.642Z,4.70
2018-12-07T03:14:21.631Z,4.50
2018-12-07T03:15:21.614Z,4.70
2018-12-07T03:16:21.613Z,3.70
2018-12-07T03:17:21.624Z,4.60
2018-12-07T03:18:21.825Z,4.20
2018-12-07T03:19:21.615Z,4.50
2018-12-07T03:20:21.824Z,4.40
2018-12-07T03:21:21.624Z,4.80
2018-12-07T03:22:21.607Z,4.40
2018-12-07T03:23:21.602Z,4.00
2018-12-07T03:24:21.600Z,4.20
2018-12-07T03:25:21.606Z,3.90
2018-12-07T03:26:21.819Z,3.90
2018-12-07T03:27:21.619Z,3.90
2018-12-07T03:28:21.611Z,3.90
2018-12-07T03:29:21.793Z,3.90
2018-12-07T03:30:21.620Z,3.50
2018-12-07T03:31:21.597Z,3.50
2018-12-07T03:32:21.808Z,3.90
2018-12-07T03:33:21.596Z,3.40
2018-12-07T03:34:21.592Z,2.90
2018-12-07T03:35:21.610Z,3.60
2018-12-07T03:36:21.829Z,3.30
2018-12-07T03:37:21.595Z,3.40
2018-12-07T03:38:21.585Z,3.50
2018-12-07T03:39:21.588Z,3.70
2018-12-07T03:40:21.581Z,3.70
2018-12-07T03:41:21.578Z,3.30
2018-12-07T03:42:21.588Z,3.60
2018-12-07T03:43:21.602Z,3.50
2018-12-07T03:44:21.575Z,3.50
2018-12-07T03:45:21.606Z,3.30
2018-12-07T03:46:21.589Z,3.80
2018-12-07T03:47:21.571Z,3.50
2018-12-07T03:48:21.565Z,3.40
2018-12-07T03:49:21.590Z,3.30
2018-12-07T03:50:21.590Z,3.10
2018-12-07T03:51:21.576Z,3.40
2018-12-07T03:52:21.577Z,3.30
2018-12-07T03:53:21.574Z,3.40
2018-12-07T03:54:21.578Z,3.20
2018-12-07T03:55:21.608Z,3.40
2018-12-07T03:56:21.574Z,3.20
2018-12-07T03:57:21.756Z,3.50
2018-12-07T03:58:21.565Z,3.20
2018-12-07T03:59:21.761Z,4.10
2018-12-07T04:00:21.575Z,3.90
2018-12-07T04:01:21.620Z,3.30
2018-12-07T04:02:21.550Z,3.50
2018-12-07T04:03:21.548Z,3.80
2018-12-07T04:04:21.555Z,3.80
2018-12-07T04:05:21.558Z,3.50
2018-12-07T04:06:21.544Z,3.10
2018-12-07T04:07:21.546Z,3.30
2018-12-07T04:08:21.551Z,3.30
2018-12-07T04:09:21.550Z,3.20
2018-12-07T04:10:21.541Z,3.30
2018-12-07T04:11:21.541Z,3.10
2018-12-07T04:12:21.739Z,3.00
2018-12-07T04:13:21.555Z,3.20
2018-12-07T04:14:21.551Z,2.90
2018-12-07T04:15:21.547Z,2.70
2018-12-07T04:16:21.737Z,2.80
2018-12-07T04:17:21.752Z,3.00
2018-12-07T04:18:21.735Z,3.20
2018-12-07T04:19:21.552Z,2.90
2018-12-07T04:20:21.544Z,3.10
2018-12-07T04:21:21.541Z,2.70
2018-12-07T04:22:21.522Z,2.80
2018-12-07T04:23:21.537Z,3.20
2018-12-07T04:24:21.522Z,3.20
2018-12-07T04:25:21.521Z,2.90
2018-12-07T04:26:21.533Z,2.90
2018-12-07T04:27:21.547Z,2.70
2018-12-07T04:28:21.513Z,2.40
2018-12-07T04:29:21.526Z,2.60
2018-12-07T04:30:21.518Z,2.60
2018-12-07T04:31:21.512Z,2.70
2018-12-07T04:32:21.514Z,2.50
2018-12-07T04:33:21.719Z,2.60
2018-12-07T04:34:21.723Z,2.40
2018-12-07T04:35:21.505Z,2.60
2018-12-07T04:36:21.537Z,2.50
2018-12-07T04:37:21.505Z,2.60
2018-12-07T04:38:21.504Z,2.90
2018-12-07T04:39:21.508Z,2.80
2018-12-07T04:40:21.512Z,2.40
2018-12-07T04:41:21.517Z,2.10
2018-12-07T04:42:21.516Z,2.10
2018-12-07T04:43:21.498Z,2.50
2018-12-07T04:44:21.519Z,2.80
2018-12-07T04:45:21.499Z,2.70
2018-12-07T04:46:21.501Z,2.30
2018-12-07T04:47:21.518Z,2.50
2018-12-07T04:48:21.489Z,2.80
2018-12-07T04:49:21.706Z,2.40
2018-12-07T04:50:21.498Z,2.80
2018-12-07T04:51:21.497Z,2.60
2018-12-07T04:52:21.691Z,3.10
2018-12-07T04:53:21.485Z,3.10
2018-12-07T04:54:21.502Z,3.00
2018-12-07T04:55:21.684Z,3.10
2018-12-07T04:56:21.486Z,3.00
2018-12-07T04:57:21.492Z,2.60
2018-12-07T04:58:21.494Z,3.10
2018-12-07T04:59:21.474Z,2.90
2018-12-07T05:00:21.483Z,2.90
2018-12-07T05:01:21.485Z,2.90
2018-12-07T05:02:21.487Z,3.60
2018-12-07T05:03:21.477Z,3.60
2018-12-07T05:04:21.473Z,3.10
2018-12-07T05:05:21.492Z,3.70
2018-12-07T05:06:21.477Z,3.50
2018-12-07T05:07:21.520Z,3.90
2018-12-07T05:08:21.469Z,3.90
2018-12-07T05:09:21.466Z,4.30
2018-12-07T05:10:21.462Z,4.50
2018-12-07T05:11:21.676Z,4.70
2018-12-07T05:12:21.481Z,4.70
2018-12-07T05:13:21.454Z,4.50
2018-12-07T05:14:21.474Z,4.80
2018-12-07T05:15:21.474Z,4.70
2018-12-07T05:16:21.497Z,4.80
2018-12-07T05:17:21.489Z,5.00
2018-12-07T05:18:21.459Z,4.70
2018-12-07T05:19:21.448Z,5.30
2018-12-07T05:20:21.458Z,4.90
2018-12-07T05:21:21.454Z,4.50
2018-12-07T05:22:21.457Z,5.20
2018-12-07T05:23:21.461Z,5.70
2018-12-07T05:24:21.646Z,5.40
2018-12-07T05:25:21.442Z,5.50
2018-12-07T05:26:21.451Z,5.80
2018-12-07T05:27:21.439Z,6.00
2018-12-07T05:28:21.441Z,5.60
2018-12-07T05:29:21.434Z,5.50
2018-12-07T05:30:21.437Z,5.70
2018-12-07T05:31:21.439Z,6.20
2018-12-07T05:32:21.436Z,6.50
2018-12-07T05:33:21.433Z,6.20
2018-12-07T05:34:21.446Z,6.40
2018-12-07T05:35:21.426Z,7.10
2018-12-07T05:36:21.438Z,7.40
2018-12-07T05:37:21.423Z,7.30
2018-12-07T05:38:21.425Z,8.40
2018-12-07T05:39:21.428Z,8.10
2018-12-07T05:40:21.425Z,7.60
2018-12-07T05:41:21.420Z,7.70
2018-12-07T05:42:21.420Z,8.20
2018-12-07T05:43:21.419Z,8.60
2018-12-07T05:44:21.626Z,8.30
2018-12-07T05:45:21.432Z,9.30
2018-12-07T05:46:21.416Z,8.60
2018-12-07T05:47:21.408Z,9.00
2018-12-07T05:48:23.767Z,9.00
2018-12-07T05:49:21.403Z,8.30
2018-12-07T05:50:21.438Z,8.50
2018-12-07T05:51:21.417Z,9.80
2018-12-07T05:52:21.426Z,9.20
2018-12-07T05:53:21.417Z,8.80
2018-12-07T05:54:21.419Z,8.90
2018-12-07T05:55:21.606Z,8.40
2018-12-07T05:56:21.415Z,8.50
2018-12-07T05:57:21.412Z,9.20
2018-12-07T05:58:21.401Z,9.20
2018-12-07T05:59:21.402Z,8.90
2018-12-07T06:00:21.402Z,8.70
2018-12-07T06:01:21.396Z,8.50
2018-12-07T06:02:21.394Z,8.80
2018-12-07T06:03:21.399Z,8.20
2018-12-07T06:04:21.398Z,9.00
2018-12-07T06:05:21.476Z,8.80
2018-12-07T06:06:21.381Z,8.70
2018-12-07T06:07:21.408Z,8.90
2018-12-07T06:08:21.378Z,9.00
2018-12-07T06:09:21.381Z,9.20
2018-12-07T06:10:21.374Z,8.80
2018-12-07T06:11:21.389Z,8.90
2018-12-07T06:12:21.426Z,9.30
2018-12-07T06:13:21.384Z,10.00
2018-12-07T06:14:21.367Z,9.70
2018-12-07T06:15:21.368Z,9.10
2018-12-07T06:16:21.377Z,10.10
2018-12-07T06:17:21.381Z,9.90
2018-12-07T06:18:21.363Z,9.90
2018-12-07T06:19:21.562Z,10.30
2018-12-07T06:20:21.363Z,10.70
2018-12-07T06:21:21.379Z,10.70
2018-12-07T06:22:21.557Z,10.90
2018-12-07T06:23:21.382Z,10.80
2018-12-07T06:24:21.368Z,11.70
2018-12-07T06:25:21.420Z,10.30
2018-12-07T06:26:21.575Z,11.20
2018-12-07T06:27:21.358Z,11.60
2018-12-07T06:28:21.345Z,11.40
2018-12-07T06:29:21.551Z,11.70
2018-12-07T06:30:21.544Z,11.80
2018-12-07T06:31:21.343Z,12.10
2018-12-07T06:32:21.348Z,12.60
2018-12-07T06:33:21.352Z,12.80
2018-12-07T06:34:21.344Z,13.50
2018-12-07T06:35:21.339Z,13.50
2018-12-07T06:36:21.338Z,13.30
2018-12-07T06:37:21.329Z,14.30
2018-12-07T06:38:21.534Z,14.80
2018-12-07T06:39:21.329Z,14.80
2018-12-07T06:40:21.328Z,14.10
2018-12-07T06:41:21.321Z,15.30
2018-12-07T06:42:21.333Z,15.30
2018-12-07T06:43:21.324Z,15.50
2018-12-07T06:44:21.323Z,15.80
2018-12-07T06:45:21.323Z,15.00
2018-12-07T06:46:21.322Z,15.30
2018-12-07T06:47:21.315Z,15.60
2018-12-07T06:48:21.312Z,16.00
2018-12-07T06:49:21.518Z,15.30
2018-12-07T06:50:21.316Z,15.50
2018-12-07T06:51:21.325Z,15.90
2018-12-07T06:52:21.309Z,15.50
2018-12-07T06:53:21.304Z,16.10
2018-12-07T06:54:21.300Z,15.10
2018-12-07T06:55:21.300Z,15.90
2018-12-07T06:56:21.499Z,15.30
2018-12-07T06:57:21.292Z,15.20
2018-12-07T06:58:21.295Z,15.60
2018-12-07T06:59:21.293Z,15.60
2018-12-07T07:00:21.288Z,15.30
2018-12-07T07:01:21.298Z,14.80
2018-12-07T07:02:21.288Z,15.30
2018-12-07T07:03:21.491Z,15.60
2018-12-07T07:04:21.284Z,15.40
2018-12-07T07:05:21.288Z,15.80
2018-12-07T07:06:21.289Z,15.30
2018-12-07T07:07:21.288Z,15.70
2018-12-07T07:08:21.296Z,15.20
2018-12-07T07:09:21.288Z,15.50
2018-12-07T07:10:21.278Z,14.90
2018-12-07T07:11:21.274Z,15.70
2018-12-07T07:12:21.491Z,15.20
2018-12-07T07:13:21.478Z,14.80
2018-12-07T07:14:21.275Z,15.50
2018-12-07T07:15:21.286Z,15.10
2018-12-07T07:16:23.283Z,15.20
2018-12-07T07:17:21.470Z,15.00
2018-12-07T07:18:21.509Z,15.00
2018-12-07T07:19:21.479Z,16.70
2018-12-07T07:20:21.462Z,16.40
2018-12-07T07:21:21.252Z,15.80
2018-12-07T07:22:21.263Z,16.30
2018-12-07T07:23:21.253Z,16.00
2018-12-07T07:24:21.266Z,17.30
2018-12-07T07:25:21.247Z,16.70
2018-12-07T07:26:21.254Z,17.90
2018-12-07T07:27:21.264Z,17.00
2018-12-07T07:28:21.238Z,18.00
2018-12-07T07:29:21.270Z,17.50
2018-12-07T07:30:21.247Z,18.00
2018-12-07T07:31:21.238Z,17.80
2018-12-07T07:32:21.231Z,18.40
2018-12-07T07:33:21.262Z,18.50
2018-12-07T07:34:21.259Z,18.90
2018-12-07T07:35:21.238Z,18.70
2018-12-07T07:36:21.226Z,19.00
2018-12-07T07:37:21.229Z,19.00
2018-12-07T07:38:21.222Z,19.00
2018-12-07T07:39:21.247Z,19.60
2018-12-07T07:40:21.431Z,19.20
2018-12-07T07:41:21.430Z,18.30
2018-12-07T07:42:21.229Z,17.80
2018-12-07T07:43:21.241Z,18.30
2018-12-07T07:44:21.208Z,18.40
2018-12-07T07:45:21.241Z,18.10
2018-12-07T07:46:21.231Z,18.70
2018-12-07T07:47:21.219Z,18.40
2018-12-07T07:48:21.218Z,18.40
2018-12-07T07:49:21.207Z,18.30
2018-12-07T07:50:21.197Z,17.80
2018-12-07T07:51:21.197Z,18.80
2018-12-07T07:52:21.202Z,18.60
2018-12-07T07:53:21.399Z,17.80
2018-12-07T07:54:21.259Z,17.90
2018-12-07T07:55:21.202Z,17.80
2018-12-07T07:56:21.405Z,17.30
2018-12-07T07:57:21.212Z,17.10
2018-12-07T07:58:21.202Z,17.50
2018-12-07T07:59:21.197Z,16.60
2018-12-07T08:00:21.185Z,17.30
2018-12-07T08:01:21.179Z,17.70
2018-12-07T08:02:21.199Z,16.30
2018-12-07T08:03:21.181Z,16.30
2018-12-07T08:04:21.187Z,17.30
2018-12-07T08:05:21.169Z,16.40
2018-12-07T08:06:21.232Z,15.70
2018-12-07T08:07:21.174Z,17.20
2018-12-07T08:08:21.181Z,15.20
2018-12-07T08:09:21.178Z,15.30
2018-12-07T08:10:21.164Z,15.20
2018-12-07T08:11:21.166Z,15.20
2018-12-07T08:12:21.197Z,14.80
2018-12-07T08:13:21.376Z,15.40
2018-12-07T08:14:21.167Z,15.50
2018-12-07T08:15:21.183Z,15.30
2018-12-07T08:16:21.369Z,15.30
2018-12-07T08:17:21.164Z,15.20
2018-12-07T08:18:21.181Z,14.90
2018-12-07T08:19:21.374Z,14.40
2018-12-07T08:20:21.161Z,15.00
2018-12-07T08:21:21.348Z,14.50
2018-12-07T08:22:21.168Z,15.10
2018-12-07T08:23:21.341Z,14.30
2018-12-07T08:24:21.170Z,14.50
2018-12-07T08:25:21.159Z,14.50
2018-12-07T08:26:21.155Z,14.50
2018-12-07T08:27:21.145Z,14.80
2018-12-07T08:28:22.658Z,14.40
2018-12-07T08:29:21.133Z,14.10
2018-12-07T08:30:21.350Z,13.90
2018-12-07T08:31:21.132Z,14.40
2018-12-07T08:32:21.331Z,13.50
2018-12-07T08:33:21.139Z,14.00
2018-12-07T08:34:21.322Z,13.80
2018-12-07T08:35:21.133Z,13.70
2018-12-07T08:36:21.141Z,13.20
2018-12-07T08:37:21.131Z,13.30
2018-12-07T08:38:21.128Z,12.70
2018-12-07T08:39:21.114Z,12.90
2018-12-07T08:40:21.119Z,12.50
2018-12-07T08:41:21.116Z,12.70
2018-12-07T08:42:21.115Z,13.20
2018-12-07T08:43:21.112Z,13.00
2018-12-07T08:44:21.112Z,12.90
2018-12-07T08:45:21.107Z,13.00
2018-12-07T08:46:21.113Z,12.40
2018-12-07T08:47:21.097Z,13.00
2018-12-07T08:48:21.106Z,12.20
2018-12-07T08:49:21.103Z,12.60
2018-12-07T08:50:21.094Z,12.40
2018-12-07T08:51:21.097Z,12.60
2018-12-07T08:52:21.095Z,13.10
2018-12-07T08:53:21.099Z,12.10
2018-12-07T08:54:21.125Z,12.70
2018-12-07T08:55:21.093Z,12.40
2018-12-07T08:56:21.087Z,12.30
2018-12-07T08:57:21.096Z,12.10
2018-12-07T08:58:21.283Z,12.00
2018-12-07T08:59:21.081Z,12.40
2018-12-07T09:00:21.076Z,11.80
2018-12-07T09:01:21.097Z,11.80
2018-12-07T09:02:21.074Z,10.50
2018-12-07T09:03:21.069Z,10.60
2018-12-07T09:04:21.075Z,9.30
2018-12-07T09:05:21.070Z,9.10
2018-12-07T09:06:21.068Z,9.50
2018-12-07T09:07:21.081Z,8.10
2018-12-07T09:08:21.068Z,8.10
2018-12-07T09:09:21.076Z,8.00
2018-12-07T09:10:21.276Z,8.00
2018-12-07T09:11:21.076Z,7.60
2018-12-07T09:12:21.263Z,8.10
2018-12-07T09:13:21.062Z,8.10
2018-12-07T09:14:21.059Z,7.80
2018-12-07T09:15:21.055Z,8.20
2018-12-07T09:16:21.280Z,8.60
2018-12-07T09:17:21.064Z,9.00
2018-12-07T09:18:21.050Z,8.70
2018-12-07T09:19:21.052Z,8.50
2018-12-07T09:20:21.060Z,8.50
2018-12-07T09:21:21.072Z,8.70
2018-12-07T09:22:21.054Z,8.20
2018-12-07T09:23:21.059Z,8.30
2018-12-07T09:24:21.069Z,8.10
2018-12-07T09:25:21.256Z,7.80
2018-12-07T09:26:21.037Z,7.20
2018-12-07T09:27:21.050Z,8.00
2018-12-07T09:28:21.049Z,7.40
2018-12-07T09:29:21.043Z,7.40
2018-12-07T09:30:21.040Z,7.50
2018-12-07T09:31:21.030Z,7.70
2018-12-07T09:32:21.232Z,7.30
2018-12-07T09:33:21.053Z,7.30
2018-12-07T09:34:21.039Z,7.40
2018-12-07T09:35:21.026Z,7.50
2018-12-07T09:36:21.022Z,7.40
2018-12-07T09:37:21.025Z,7.00
2018-12-07T09:38:21.026Z,7.30
2018-12-07T09:39:21.021Z,7.00
2018-12-07T09:40:21.040Z,7.50
2018-12-07T09:41:21.032Z,7.20
2018-12-07T09:42:21.048Z,7.40
2018-12-07T09:43:21.011Z,6.80
2018-12-07T09:44:21.007Z,6.70
2018-12-07T09:45:21.028Z,6.20
2018-12-07T09:46:21.006Z,6.40
2018-12-07T09:47:21.018Z,6.30
2018-12-07T09:48:21.007Z,6.60
2018-12-07T09:49:21.020Z,5.80
2018-12-07T09:50:21.005Z,6.20
2018-12-07T09:51:21.013Z,5.60
2018-12-07T09:52:20.999Z,5.30
2018-12-07T09:53:20.999Z,5.50
2018-12-07T09:54:21.009Z,5.20
2018-12-07T09:55:21.007Z,5.10
2018-12-07T09:56:20.991Z,4.70
2018-12-07T09:57:20.996Z,5.00
2018-12-07T09:58:20.995Z,5.20
2018-12-07T09:59:20.985Z,5.10
2018-12-07T10:00:20.985Z,5.20
2018-12-07T10:01:20.987Z,5.20
2018-12-07T10:02:20.983Z,4.90
2018-12-07T10:03:20.994Z,5.40
2018-12-07T10:04:21.006Z,5.20
2018-12-07T10:05:20.974Z,5.40
2018-12-07T10:06:20.986Z,5.10
2018-12-07T10:07:20.980Z,5.40
2018-12-07T10:08:20.972Z,5.50
2018-12-07T10:09:21.004Z,4.80
2018-12-07T10:10:20.969Z,4.70
2018-12-07T10:11:20.966Z,5.20
2018-12-07T10:12:20.971Z,5.40
2018-12-07T10:13:20.986Z,4.90
2018-12-07T10:14:20.984Z,4.60
2018-12-07T10:15:20.984Z,4.90
2018-12-07T10:16:20.984Z,4.80
2018-12-07T10:17:20.972Z,4.80
2018-12-07T10:18:20.976Z,4.30
2018-12-07T10:19:20.956Z,4.10
2018-12-07T10:20:20.977Z,4.40
2018-12-07T10:21:20.955Z,4.10
2018-12-07T10:22:20.954Z,3.70
2018-12-07T10:23:20.950Z,3.60
2018-12-07T10:24:20.965Z,3.70
2018-12-07T10:25:20.947Z,3.70
2018-12-07T10:26:20.961Z,3.60
2018-12-07T10:27:20.947Z,3.40
2018-12-07T10:28:20.964Z,3.30
2018-12-07T10:29:20.958Z,3.40
2018-12-07T10:30:20.961Z,2.80
2018-12-07T10:31:20.936Z,3.10
2018-12-07T10:32:20.950Z,3.00
2018-12-07T10:33:20.951Z,3.00
2018-12-07T10:34:20.944Z,3.00
2018-12-07T10:35:20.955Z,2.90
2018-12-07T10:36:20.960Z,2.70
2018-12-07T10:37:20.931Z,2.70
2018-12-07T10:38:20.946Z,2.70
2018-12-07T10:39:20.926Z,2.70
2018-12-07T10:40:20.982Z,2.80
2018-12-07T10:41:20.950Z,2.80
2018-12-07T10:42:20.936Z,2.60
2018-12-07T10:43:21.031Z,28.70
2018-12-07T10:44:20.920Z,4.20
2018-12-07T10:45:20.927Z,3.20
2018-12-07T10:46:21.123Z,2.40
2018-12-07T10:47:20.948Z,2.50
2018-12-07T10:48:20.947Z,3.10
2018-12-07T10:49:20.918Z,2.70
2018-12-07T10:50:20.913Z,2.50
2018-12-07T10:51:21.127Z,2.50
2018-12-07T10:52:20.917Z,2.50
2018-12-07T10:53:20.916Z,2.30
2018-12-07T10:54:20.906Z,2.30
2018-12-07T10:55:20.923Z,2.40
2018-12-07T10:56:20.903Z,2.10
2018-12-07T10:57:20.919Z,2.00
2018-12-07T10:58:20.899Z,1.90
2018-12-07T10:59:20.905Z,1.50
2018-12-07T11:00:23.072Z,1.70
2018-12-07T11:01:20.920Z,1.80
2018-12-07T11:02:20.916Z,1.50
2018-12-07T11:03:21.095Z,1.70
2018-12-07T11:04:20.895Z,1.60
2018-12-07T11:05:22.406Z,1.40
2018-12-07T11:06:20.889Z,1.60
2018-12-07T11:07:21.096Z,1.40
2018-12-07T11:08:20.891Z,1.60
2018-12-07T11:09:20.889Z,1.40
2018-12-07T11:10:20.901Z,1.30
2018-12-07T11:11:20.900Z,1.30
2018-12-07T11:12:20.884Z,1.30
2018-12-07T11:13:20.882Z,1.30
2018-12-07T11:14:20.879Z,1.20
2018-12-07T11:15:20.878Z,1.50
2018-12-07T11:16:20.884Z,1.80
2018-12-07T11:17:20.889Z,1.30
2018-12-07T11:18:20.878Z,1.30
2018-12-07T11:19:21.078Z,1.20
2018-12-07T11:20:20.881Z,1.30
2018-12-07T11:21:20.877Z,1.30
2018-12-07T11:22:20.884Z,1.20
2018-12-07T11:23:20.866Z,1.20
2018-12-07T11:24:20.882Z,1.20
2018-12-07T11:25:20.876Z,1.10
2018-12-07T11:26:20.882Z,1.10
2018-12-07T11:27:20.874Z,2.10
2018-12-07T11:28:20.859Z,2.20
2018-12-07T11:29:20.862Z,3.10
2018-12-07T11:30:20.872Z,3.10
2018-12-07T11:31:20.871Z,2.30
2018-12-07T11:32:20.879Z,2.40
2018-12-07T11:33:21.058Z,1.60
2018-12-07T11:34:20.858Z,1.40
2018-12-07T11:35:21.051Z,1.10
2018-12-07T11:36:20.850Z,1.00
2018-12-07T11:37:20.862Z,0.90
2018-12-07T11:38:20.846Z,0.90
2018-12-07T11:39:20.845Z,0.90
2018-12-07T11:40:20.847Z,1.00
2018-12-07T11:41:20.841Z,0.80
2018-12-07T11:42:21.046Z,0.80
2018-12-07T11:43:20.840Z,0.90
2018-12-07T11:44:21.056Z,0.80
2018-12-07T11:45:20.855Z,0.70
2018-12-07T11:46:20.874Z,0.80
2018-12-07T11:47:20.835Z,0.80
2018-12-07T11:48:21.041Z,0.70
2018-12-07T11:49:21.053Z,0.80
2018-12-07T11:50:20.839Z,0.80
2018-12-07T11:51:20.828Z,0.80
2018-12-07T11:52:20.839Z,0.80
2018-12-07T11:53:20.839Z,0.80
2018-12-07T11:54:20.841Z,0.90
2018-12-07T11:55:20.821Z,0.80
2018-12-07T11:56:20.824Z,0.70
2018-12-07T11:57:20.818Z,0.80
2018-12-07T11:58:20.822Z,0.90
2018-12-07T11:59:20.830Z,0.70
2018-12-07T12:00:20.834Z,0.70
2018-12-07T12:01:20.824Z,0.90
2018-12-07T12:02:26.266Z,0.80
2018-12-07T12:03:20.821Z,0.80
2018-12-07T12:04:21.020Z,0.80
2018-12-07T12:05:20.812Z,0.80
2018-12-07T12:06:20.816Z,0.70
2018-12-07T12:07:21.030Z,0.70
2018-12-07T12:08:20.818Z,0.80
2018-12-07T12:09:20.806Z,0.70
2018-12-07T12:10:20.812Z,0.70
2018-12-07T12:11:20.811Z,0.70
2018-12-07T12:12:21.012Z,0.70
2018-12-07T12:13:20.817Z,0.80
2018-12-07T12:14:20.806Z,0.70
2018-12-07T12:15:20.825Z,0.80
2018-12-07T12:16:20.820Z,0.80
2018-12-07T12:17:21.011Z,0.80
2018-12-07T12:18:20.801Z,0.70
2018-12-07T12:19:20.794Z,0.60
2018-12-07T12:20:20.787Z,0.70
2018-12-07T12:21:20.802Z,0.80
2018-12-07T12:22:20.806Z,0.70
2018-12-07T12:23:20.798Z,0.70
2018-12-07T12:24:20.793Z,0.70
2018-12-07T12:25:20.798Z,0.60
2018-12-07T12:26:20.778Z,0.70
2018-12-07T12:27:20.783Z,0.70
2018-12-07T12:28:20.795Z,0.60
2018-12-07T12:29:20.984Z,0.60
2018-12-07T12:30:20.801Z,0.60
2018-12-07T12:31:20.977Z,0.70
2018-12-07T12:32:20.798Z,0.70
2018-12-07T12:33:20.779Z,0.60
2018-12-07T12:34:20.769Z,0.70
2018-12-07T12:35:21.610Z,0.60
2018-12-07T12:36:20.791Z,0.70
2018-12-07T12:37:20.974Z,0.50
2018-12-07T12:38:20.776Z,0.70
2018-12-07T12:39:20.768Z,0.60
2018-12-07T12:40:20.781Z,0.60
2018-12-07T12:41:22.756Z,0.70
2018-12-07T12:42:20.758Z,0.70
2018-12-07T12:43:20.772Z,0.60
2018-12-07T12:44:20.754Z,0.60
2018-12-07T12:45:20.768Z,0.60
2018-12-07T12:46:20.819Z,0.70
2018-12-07T12:47:20.755Z,0.60
2018-12-07T12:48:20.763Z,0.70
2018-12-07T12:49:20.755Z,0.60
2018-12-07T12:50:20.760Z,0.70
2018-12-07T12:51:20.749Z,0.70
2018-12-07T12:52:20.955Z,0.80
2018-12-07T12:53:20.953Z,0.70
2018-12-07T12:54:20.953Z,0.60
2018-12-07T12:55:20.960Z,0.60
2018-12-07T12:56:20.748Z,0.70
2018-12-07T12:57:20.730Z,0.70
2018-12-07T12:58:20.793Z,0.60
2018-12-07T12:59:20.730Z,0.60
2018-12-07T13:00:20.734Z,0.70
2018-12-07T13:01:20.751Z,0.70
2018-12-07T13:02:20.739Z,0.70
2018-12-07T13:03:20.756Z,0.60
2018-12-07T13:04:20.740Z,0.50
2018-12-07T13:05:20.730Z,0.70
2018-12-07T13:06:20.734Z,0.60
2018-12-07T13:07:20.734Z,0.60
2018-12-07T13:08:20.732Z,0.70
2018-12-07T13:09:20.716Z,0.60
2018-12-07T13:10:20.720Z,0.70
2018-12-07T13:11:20.723Z,0.60
2018-12-07T13:12:20.735Z,0.50